sensor_id;sensor_type;location;lat;lon;timestamp;temperature;humidity
1415;DHT22;702;49.466;11.086;2022-12-05T00:00:50;6.40;95.20
1415;DHT22;702;49.466;11.086;2022-12-05T00:03:17;6.30;95.70
1415;DHT22;702;49.466;11.086;2022-12-05T00:05:44;6.30;95.70
1415;DHT22;702;49.466;11.086;2022-12-05T00:08:11;6.20;96.50
1415;DHT22;702;49.466;11.086;2022-12-05T00:10:40;6.20;96.90
1415;DHT22;702;49.466;11.086;2022-12-05T00:13:08;6.20;96.90
1415;DHT22;702;49.466;11.086;2022-12-05T00:15:36;6.10;97.70
1415;DHT22;702;49.466;11.086;2022-12-05T00:18:04;6.10;98.60
1415;DHT22;702;49.466;11.086;2022-12-05T00:20:32;6.10;98.70
1415;DHT22;702;49.466;11.086;2022-12-05T00:22:59;6.00;99.90
1415;DHT22;702;49.466;11.086;2022-12-05T00:25:27;5.90;99.90
1415;DHT22;702;49.466;11.086;2022-12-05T00:27:56;6.00;99.90
1415;DHT22;702;49.466;11.086;2022-12-05T00:30:23;6.00;99.90
1415;DHT22;702;49.466;11.086;2022-12-05T00:32:50;5.90;99.90
1415;DHT22;702;49.466;11.086;2022-12-05T00:35:17;5.90;99.90
1415;DHT22;702;49.466;11.086;2022-12-05T00:37:45;5.90;99.90
1415;DHT22;702;49.466;11.086;2022-12-05T00:40:12;5.90;99.90
1415;DHT22;702;49.466;11.086;2022-12-05T00:42:40;5.90;99.90
1415;DHT22;702;49.466;11.086;2022-12-05T00:45:09;5.90;99.90
1415;DHT22;702;49.466;11.086;2022-12-05T00:47:37;5.80;99.90
1415;DHT22;702;49.466;11.086;2022-12-05T00:50:05;5.80;99.90
1415;DHT22;702;49.466;11.086;2022-12-05T00:52:33;5.90;99.90
1415;DHT22;702;49.466;11.086;2022-12-05T00:55:00;5.90;99.90
1415;DHT22;702;49.466;11.086;2022-12-05T00:57:28;5.80;99.90
1415;DHT22;702;49.466;11.086;2022-12-05T00:59:55;5.80;99.90
1415;DHT22;702;49.466;11.086;2022-12-05T01:02:23;5.80;99.90
1415;DHT22;702;49.466;11.086;2022-12-05T01:04:51;5.80;99.90
1415;DHT22;702;49.466;11.086;2022-12-05T01:07:18;5.90;99.90
1415;DHT22;702;49.466;11.086;2022-12-05T01:09:45;5.80;99.90
1415;DHT22;702;49.466;11.086;2022-12-05T01:12:12;5.90;99.90
1415;DHT22;702;49.466;11.086;2022-12-05T01:14:40;5.90;99.90
1415;DHT22;702;49.466;11.086;2022-12-05T01:17:07;5.90;99.90
1415;DHT22;702;49.466;11.086;2022-12-05T01:19:36;5.90;99.90
1415;DHT22;702;49.466;11.086;2022-12-05T01:22:04;5.80;99.90
1415;DHT22;702;49.466;11.086;2022-12-05T01:24:31;5.80;99.90
1415;DHT22;702;49.466;11.086;2022-12-05T01:26:58;5.80;99.90
1415;DHT22;702;49.466;11.086;2022-12-05T01:29:26;5.80;99.90
1415;DHT22;702;49.466;11.086;2022-12-05T01:31:53;5.90;99.90
1415;DHT22;702;49.466;11.086;2022-12-05T01:34:20;5.80;99.90
1415;DHT22;702;49.466;11.086;2022-12-05T01:36:49;5.80;99.90
1415;DHT22;702;49.466;11.086;2022-12-05T01:39:17;5.80;99.90
1415;DHT22;702;49.466;11.086;2022-12-05T01:41:46;5.80;99.90
1415;DHT22;702;49.466;11.086;2022-12-05T01:47:32;5.90;99.90
1415;DHT22;702;49.466;11.086;2022-12-05T01:50:02;5.90;99.90
1415;DHT22;702;49.466;11.086;2022-12-05T01:52:32;5.90;99.90
1415;DHT22;702;49.466;11.086;2022-12-05T01:55:06;5.90;99.90
1415;DHT22;702;49.466;11.086;2022-12-05T01:57:36;5.80;99.90
1415;DHT22;702;49.466;11.086;2022-12-05T02:00:09;5.80;99.90
1415;DHT22;702;49.466;11.086;2022-12-05T02:02:40;5.80;99.90
1415;DHT22;702;49.466;11.086;2022-12-05T02:05:14;5.80;99.90
1415;DHT22;702;49.466;11.086;2022-12-05T02:07:46;5.90;99.90
1415;DHT22;702;49.466;11.086;2022-12-05T02:10:13;5.80;99.90
1415;DHT22;702;49.466;11.086;2022-12-05T02:12:42;5.80;99.90
1415;DHT22;702;49.466;11.086;2022-12-05T02:15:24;5.80;99.90
1415;DHT22;702;49.466;11.086;2022-12-05T02:18:08;5.80;99.90
1415;DHT22;702;49.466;11.086;2022-12-05T02:20:52;5.80;99.90
1415;DHT22;702;49.466;11.086;2022-12-05T02:23:44;5.80;99.90
1415;DHT22;702;49.466;11.086;2022-12-05T02:26:55;5.80;99.90
1415;DHT22;702;49.466;11.086;2022-12-05T02:32:36;5.80;99.90
1415;DHT22;702;49.466;11.086;2022-12-05T02:35:15;5.90;99.90
1415;DHT22;702;49.466;11.086;2022-12-05T02:37:52;5.90;99.80
1415;DHT22;702;49.466;11.086;2022-12-05T02:40:27;5.80;98.30
1415;DHT22;702;49.466;11.086;2022-12-05T02:43:01;5.80;99.30
1415;DHT22;702;49.466;11.086;2022-12-05T02:45:34;5.80;99.20
1415;DHT22;702;49.466;11.086;2022-12-05T02:48:03;5.70;99.90
1415;DHT22;702;49.466;11.086;2022-12-05T02:50:33;5.60;99.90
1415;DHT22;702;49.466;11.086;2022-12-05T02:53:04;5.60;99.90
1415;DHT22;702;49.466;11.086;2022-12-05T02:55:34;5.60;99.90
1415;DHT22;702;49.466;11.086;2022-12-05T02:58:04;5.60;99.90
1415;DHT22;702;49.466;11.086;2022-12-05T03:00:39;5.70;99.90
1415;DHT22;702;49.466;11.086;2022-12-05T03:03:13;5.60;98.80
1415;DHT22;702;49.466;11.086;2022-12-05T03:05:45;5.50;99.90
1415;DHT22;702;49.466;11.086;2022-12-05T03:08:19;5.50;99.90
1415;DHT22;702;49.466;11.086;2022-12-05T03:10:50;5.40;99.90
1415;DHT22;702;49.466;11.086;2022-12-05T03:13:21;5.30;99.90
1415;DHT22;702;49.466;11.086;2022-12-05T03:15:57;5.30;99.90
1415;DHT22;702;49.466;11.086;2022-12-05T03:18:29;5.30;99.90
1415;DHT22;702;49.466;11.086;2022-12-05T03:21:01;5.30;99.90
1415;DHT22;702;49.466;11.086;2022-12-05T03:23:33;5.30;99.90
1415;DHT22;702;49.466;11.086;2022-12-05T03:26:06;5.30;99.90
1415;DHT22;702;49.466;11.086;2022-12-05T03:28:48;5.30;99.90
1415;DHT22;702;49.466;11.086;2022-12-05T03:31:31;5.30;99.90
1415;DHT22;702;49.466;11.086;2022-12-05T03:34:02;5.30;99.90
1415;DHT22;702;49.466;11.086;2022-12-05T03:36:37;5.30;99.90
1415;DHT22;702;49.466;11.086;2022-12-05T03:39:09;5.20;99.90
1415;DHT22;702;49.466;11.086;2022-12-05T03:41:47;5.10;99.90
1415;DHT22;702;49.466;11.086;2022-12-05T03:44:23;5.10;99.90
1415;DHT22;702;49.466;11.086;2022-12-05T03:46:58;5.20;99.90
1415;DHT22;702;49.466;11.086;2022-12-05T03:49:31;5.20;99.90
1415;DHT22;702;49.466;11.086;2022-12-05T03:52:05;5.20;99.90
1415;DHT22;702;49.466;11.086;2022-12-05T03:54:36;5.20;97.80
1415;DHT22;702;49.466;11.086;2022-12-05T03:57:11;5.20;97.40
1415;DHT22;702;49.466;11.086;2022-12-05T03:59:44;5.20;96.00
1415;DHT22;702;49.466;11.086;2022-12-05T04:02:20;5.20;95.90
1415;DHT22;702;49.466;11.086;2022-12-05T04:04:54;5.20;96.10
1415;DHT22;702;49.466;11.086;2022-12-05T04:07:25;5.20;95.70
1415;DHT22;702;49.466;11.086;2022-12-05T04:09:56;5.20;95.70
1415;DHT22;702;49.466;11.086;2022-12-05T04:12:28;5.10;95.40
1415;DHT22;702;49.466;11.086;2022-12-05T04:14:58;5.10;95.70
1415;DHT22;702;49.466;11.086;2022-12-05T04:17:31;5.10;96.00
1415;DHT22;702;49.466;11.086;2022-12-05T04:20:03;5.00;96.50
1415;DHT22;702;49.466;11.086;2022-12-05T04:22:49;4.90;97.00
1415;DHT22;702;49.466;11.086;2022-12-05T04:25:17;4.80;96.50
1415;DHT22;702;49.466;11.086;2022-12-05T04:28:05;4.80;97.20
1415;DHT22;702;49.466;11.086;2022-12-05T04:30:45;4.80;98.00
1415;DHT22;702;49.466;11.086;2022-12-05T04:33:24;4.80;97.10
1415;DHT22;702;49.466;11.086;2022-12-05T04:36:02;4.70;96.90
1415;DHT22;702;49.466;11.086;2022-12-05T04:38:36;4.70;96.40
1415;DHT22;702;49.466;11.086;2022-12-05T04:41:08;4.70;96.70
1415;DHT22;702;49.466;11.086;2022-12-05T04:43:40;4.70;96.40
1415;DHT22;702;49.466;11.086;2022-12-05T04:46:10;4.70;96.70
1415;DHT22;702;49.466;11.086;2022-12-05T04:48:43;4.70;96.40
1415;DHT22;702;49.466;11.086;2022-12-05T04:51:16;4.70;96.10
1415;DHT22;702;49.466;11.086;2022-12-05T04:53:45;4.70;95.70
1415;DHT22;702;49.466;11.086;2022-12-05T04:56:18;4.50;97.70
1415;DHT22;702;49.466;11.086;2022-12-05T04:58:46;4.50;97.50
1415;DHT22;702;49.466;11.086;2022-12-05T05:01:16;4.40;98.00
1415;DHT22;702;49.466;11.086;2022-12-05T05:03:50;4.50;97.90
1415;DHT22;702;49.466;11.086;2022-12-05T05:06:18;4.50;98.10
1415;DHT22;702;49.466;11.086;2022-12-05T05:08:47;4.50;98.00
1415;DHT22;702;49.466;11.086;2022-12-05T05:11:18;4.50;97.10
1415;DHT22;702;49.466;11.086;2022-12-05T05:13:46;4.50;96.50
1415;DHT22;702;49.466;11.086;2022-12-05T05:16:16;4.50;96.00
1415;DHT22;702;49.466;11.086;2022-12-05T05:18:44;4.50;96.00
1415;DHT22;702;49.466;11.086;2022-12-05T05:21:19;4.50;95.40
1415;DHT22;702;49.466;11.086;2022-12-05T05:23:47;4.50;95.80
1415;DHT22;702;49.466;11.086;2022-12-05T05:26:15;4.50;95.60
1415;DHT22;702;49.466;11.086;2022-12-05T05:28:43;4.40;95.20
1415;DHT22;702;49.466;11.086;2022-12-05T05:31:12;4.50;94.40
1415;DHT22;702;49.466;11.086;2022-12-05T05:33:42;4.40;93.90
1415;DHT22;702;49.466;11.086;2022-12-05T05:36:11;4.50;94.20
1415;DHT22;702;49.466;11.086;2022-12-05T05:38:42;4.50;94.00
1415;DHT22;702;49.466;11.086;2022-12-05T05:41:11;4.60;93.70
1415;DHT22;702;49.466;11.086;2022-12-05T05:43:40;4.40;94.30
1415;DHT22;702;49.466;11.086;2022-12-05T05:46:07;4.50;93.90
1415;DHT22;702;49.466;11.086;2022-12-05T05:48:35;4.50;93.10
1415;DHT22;702;49.466;11.086;2022-12-05T05:51:04;4.30;93.30
1415;DHT22;702;49.466;11.086;2022-12-05T05:53:33;4.30;93.20
1415;DHT22;702;49.466;11.086;2022-12-05T05:56:03;4.30;92.40
1415;DHT22;702;49.466;11.086;2022-12-05T05:58:31;4.40;92.70
1415;DHT22;702;49.466;11.086;2022-12-05T06:01:02;4.40;92.70
1415;DHT22;702;49.466;11.086;2022-12-05T06:03:30;4.40;92.20
1415;DHT22;702;49.466;11.086;2022-12-05T06:05:58;4.40;93.30
1415;DHT22;702;49.466;11.086;2022-12-05T06:08:28;4.40;92.90
1415;DHT22;702;49.466;11.086;2022-12-05T06:10:56;4.30;92.80
1415;DHT22;702;49.466;11.086;2022-12-05T06:13:25;4.30;93.00
1415;DHT22;702;49.466;11.086;2022-12-05T06:15:52;4.20;93.10
1415;DHT22;702;49.466;11.086;2022-12-05T06:18:20;4.10;93.40
1415;DHT22;702;49.466;11.086;2022-12-05T06:20:52;4.20;95.70
1415;DHT22;702;49.466;11.086;2022-12-05T06:23:19;4.10;93.40
1415;DHT22;702;49.466;11.086;2022-12-05T06:25:47;3.90;94.30
1415;DHT22;702;49.466;11.086;2022-12-05T06:28:14;3.90;95.00
1415;DHT22;702;49.466;11.086;2022-12-05T06:30:44;3.80;94.80
1415;DHT22;702;49.466;11.086;2022-12-05T06:33:11;3.80;94.60
1415;DHT22;702;49.466;11.086;2022-12-05T06:35:39;4.00;97.00
1415;DHT22;702;49.466;11.086;2022-12-05T06:38:07;4.20;96.60
1415;DHT22;702;49.466;11.086;2022-12-05T06:40:34;4.20;93.20
1415;DHT22;702;49.466;11.086;2022-12-05T06:43:05;4.20;92.90
1415;DHT22;702;49.466;11.086;2022-12-05T06:45:32;4.10;93.00
1415;DHT22;702;49.466;11.086;2022-12-05T06:48:01;4.20;92.50
1415;DHT22;702;49.466;11.086;2022-12-05T06:50:28;4.20;91.30
1415;DHT22;702;49.466;11.086;2022-12-05T06:52:56;4.00;91.20
1415;DHT22;702;49.466;11.086;2022-12-05T06:55:23;3.80;91.90
1415;DHT22;702;49.466;11.086;2022-12-05T06:57:51;3.70;92.20
1415;DHT22;702;49.466;11.086;2022-12-05T07:00:18;3.80;91.90
1415;DHT22;702;49.466;11.086;2022-12-05T07:03:01;3.80;91.50
1415;DHT22;702;49.466;11.086;2022-12-05T07:05:28;3.80;92.20
1415;DHT22;702;49.466;11.086;2022-12-05T07:07:56;3.70;92.00
1415;DHT22;702;49.466;11.086;2022-12-05T07:10:24;3.80;92.20
1415;DHT22;702;49.466;11.086;2022-12-05T07:12:52;3.90;91.30
1415;DHT22;702;49.466;11.086;2022-12-05T07:15:19;3.90;91.20
1415;DHT22;702;49.466;11.086;2022-12-05T07:17:46;3.80;91.40
1415;DHT22;702;49.466;11.086;2022-12-05T07:20:15;3.80;92.00
1415;DHT22;702;49.466;11.086;2022-12-05T07:22:43;3.90;91.60
1415;DHT22;702;49.466;11.086;2022-12-05T07:25:11;4.00;90.80
1415;DHT22;702;49.466;11.086;2022-12-05T07:27:38;4.00;91.20
1415;DHT22;702;49.466;11.086;2022-12-05T07:30:07;4.00;90.20
1415;DHT22;702;49.466;11.086;2022-12-05T07:32:35;4.10;89.50
1415;DHT22;702;49.466;11.086;2022-12-05T07:35:02;4.00;88.40
1415;DHT22;702;49.466;11.086;2022-12-05T07:37:32;3.90;89.50
1415;DHT22;702;49.466;11.086;2022-12-05T07:40:01;3.90;90.10
1415;DHT22;702;49.466;11.086;2022-12-05T07:42:30;4.10;89.10
1415;DHT22;702;49.466;11.086;2022-12-05T07:44:57;4.20;87.50
1415;DHT22;702;49.466;11.086;2022-12-05T07:47:24;4.00;87.40
1415;DHT22;702;49.466;11.086;2022-12-05T07:49:52;4.00;88.20
1415;DHT22;702;49.466;11.086;2022-12-05T07:52:21;4.00;88.50
1415;DHT22;702;49.466;11.086;2022-12-05T07:54:50;4.00;87.10
1415;DHT22;702;49.466;11.086;2022-12-05T07:57:17;4.00;87.00
1415;DHT22;702;49.466;11.086;2022-12-05T07:59:44;4.10;86.60
1415;DHT22;702;49.466;11.086;2022-12-05T08:02:12;4.10;87.00
1415;DHT22;702;49.466;11.086;2022-12-05T08:04:39;4.10;87.10
1415;DHT22;702;49.466;11.086;2022-12-05T08:07:09;4.20;87.10
1415;DHT22;702;49.466;11.086;2022-12-05T08:09:36;4.10;86.90
1415;DHT22;702;49.466;11.086;2022-12-05T08:12:05;4.00;87.60
1415;DHT22;702;49.466;11.086;2022-12-05T08:14:34;4.00;88.00
1415;DHT22;702;49.466;11.086;2022-12-05T08:17:02;4.00;88.00
1415;DHT22;702;49.466;11.086;2022-12-05T08:19:29;4.00;88.60
1415;DHT22;702;49.466;11.086;2022-12-05T08:21:56;4.10;87.80
1415;DHT22;702;49.466;11.086;2022-12-05T08:24:23;4.20;87.50
1415;DHT22;702;49.466;11.086;2022-12-05T08:26:51;4.20;87.30
1415;DHT22;702;49.466;11.086;2022-12-05T08:29:21;4.30;86.90
1415;DHT22;702;49.466;11.086;2022-12-05T08:31:49;4.30;87.40
1415;DHT22;702;49.466;11.086;2022-12-05T08:34:18;4.40;86.50
1415;DHT22;702;49.466;11.086;2022-12-05T08:36:46;4.40;86.70
1415;DHT22;702;49.466;11.086;2022-12-05T08:39:15;4.30;86.30
1415;DHT22;702;49.466;11.086;2022-12-05T08:41:44;4.20;87.20
1415;DHT22;702;49.466;11.086;2022-12-05T08:44:13;4.30;87.40
1415;DHT22;702;49.466;11.086;2022-12-05T08:46:45;4.30;87.00
1415;DHT22;702;49.466;11.086;2022-12-05T08:49:13;4.50;87.40
1415;DHT22;702;49.466;11.086;2022-12-05T08:51:44;4.60;85.40
1415;DHT22;702;49.466;11.086;2022-12-05T08:54:11;4.70;85.90
1415;DHT22;702;49.466;11.086;2022-12-05T08:56:39;4.80;85.20
1415;DHT22;702;49.466;11.086;2022-12-05T08:59:07;4.90;85.10
1415;DHT22;702;49.466;11.086;2022-12-05T09:01:34;5.20;85.20
1415;DHT22;702;49.466;11.086;2022-12-05T09:04:05;5.40;83.20
1415;DHT22;702;49.466;11.086;2022-12-05T09:06:33;5.40;82.50
1415;DHT22;702;49.466;11.086;2022-12-05T09:09:04;5.30;83.00
1415;DHT22;702;49.466;11.086;2022-12-05T09:11:34;5.30;83.10
1415;DHT22;702;49.466;11.086;2022-12-05T09:14:03;5.10;83.60
1415;DHT22;702;49.466;11.086;2022-12-05T09:16:32;4.90;84.20
1415;DHT22;702;49.466;11.086;2022-12-05T09:19:01;4.90;84.60
1415;DHT22;702;49.466;11.086;2022-12-05T09:21:30;4.80;84.60
1415;DHT22;702;49.466;11.086;2022-12-05T09:23:59;4.80;85.60
1415;DHT22;702;49.466;11.086;2022-12-05T09:26:28;4.80;85.30
1415;DHT22;702;49.466;11.086;2022-12-05T09:28:56;4.70;85.40
1415;DHT22;702;49.466;11.086;2022-12-05T09:31:25;4.80;85.30
1415;DHT22;702;49.466;11.086;2022-12-05T09:33:53;4.70;85.00
1415;DHT22;702;49.466;11.086;2022-12-05T09:36:23;4.70;85.00
1415;DHT22;702;49.466;11.086;2022-12-05T09:38:53;4.60;85.80
1415;DHT22;702;49.466;11.086;2022-12-05T09:41:30;4.70;86.20
1415;DHT22;702;49.466;11.086;2022-12-05T09:44:54;4.80;85.50
1415;DHT22;702;49.466;11.086;2022-12-05T09:47:33;4.90;85.70
1415;DHT22;702;49.466;11.086;2022-12-05T09:50:14;4.90;85.30
1415;DHT22;702;49.466;11.086;2022-12-05T09:53:06;4.90;85.60
1415;DHT22;702;49.466;11.086;2022-12-05T09:55:44;4.90;85.70
1415;DHT22;702;49.466;11.086;2022-12-05T09:58:20;4.90;85.60
1415;DHT22;702;49.466;11.086;2022-12-05T10:00:56;4.80;85.70
1415;DHT22;702;49.466;11.086;2022-12-05T10:03:32;4.80;86.10
1415;DHT22;702;49.466;11.086;2022-12-05T10:06:13;4.80;86.50
1415;DHT22;702;49.466;11.086;2022-12-05T10:09:00;4.80;86.70
1415;DHT22;702;49.466;11.086;2022-12-05T10:11:40;4.90;86.60
1415;DHT22;702;49.466;11.086;2022-12-05T10:14:16;4.90;86.60
1415;DHT22;702;49.466;11.086;2022-12-05T10:16:52;5.00;86.30
1415;DHT22;702;49.466;11.086;2022-12-05T10:19:24;5.00;86.10
1415;DHT22;702;49.466;11.086;2022-12-05T10:21:56;5.00;86.20
1415;DHT22;702;49.466;11.086;2022-12-05T10:24:30;5.00;85.90
1415;DHT22;702;49.466;11.086;2022-12-05T10:27:03;4.90;86.10
1415;DHT22;702;49.466;11.086;2022-12-05T10:29:37;4.90;86.60
1415;DHT22;702;49.466;11.086;2022-12-05T10:32:13;5.10;85.90
1415;DHT22;702;49.466;11.086;2022-12-05T10:34:43;5.20;86.30
1415;DHT22;702;49.466;11.086;2022-12-05T10:37:15;5.30;85.70
1415;DHT22;702;49.466;11.086;2022-12-05T10:39:44;5.40;85.10
1415;DHT22;702;49.466;11.086;2022-12-05T10:42:16;5.40;85.00
1415;DHT22;702;49.466;11.086;2022-12-05T10:44:45;5.50;84.90
1415;DHT22;702;49.466;11.086;2022-12-05T10:47:13;5.70;84.50
1415;DHT22;702;49.466;11.086;2022-12-05T10:49:41;5.70;84.00
1415;DHT22;702;49.466;11.086;2022-12-05T10:52:09;5.50;84.10
1415;DHT22;702;49.466;11.086;2022-12-05T10:54:42;5.50;84.50
1415;DHT22;702;49.466;11.086;2022-12-05T10:57:22;5.50;84.60
1415;DHT22;702;49.466;11.086;2022-12-05T10:59:51;5.60;83.90
1415;DHT22;702;49.466;11.086;2022-12-05T11:02:24;5.70;83.50
1415;DHT22;702;49.466;11.086;2022-12-05T11:04:53;5.70;83.50
1415;DHT22;702;49.466;11.086;2022-12-05T11:07:25;5.80;83.20
1415;DHT22;702;49.466;11.086;2022-12-05T11:09:57;5.60;83.50
1415;DHT22;702;49.466;11.086;2022-12-05T11:12:29;5.50;84.30
1415;DHT22;702;49.466;11.086;2022-12-05T11:15:09;5.60;85.10
1415;DHT22;702;49.466;11.086;2022-12-05T11:17:48;5.60;85.10
1415;DHT22;702;49.466;11.086;2022-12-05T11:20:40;5.60;85.50
1415;DHT22;702;49.466;11.086;2022-12-05T11:23:26;5.60;85.80
1415;DHT22;702;49.466;11.086;2022-12-05T11:25:56;5.50;86.40
1415;DHT22;702;49.466;11.086;2022-12-05T11:28:36;5.40;86.80
1415;DHT22;702;49.466;11.086;2022-12-05T11:31:17;5.50;88.50
1415;DHT22;702;49.466;11.086;2022-12-05T11:34:00;5.40;88.90
1415;DHT22;702;49.466;11.086;2022-12-05T11:36:38;5.60;88.10
1415;DHT22;702;49.466;11.086;2022-12-05T11:39:09;5.50;87.80
1415;DHT22;702;49.466;11.086;2022-12-05T11:41:47;5.70;91.70
1415;DHT22;702;49.466;11.086;2022-12-05T11:44:43;5.80;88.70
1415;DHT22;702;49.466;11.086;2022-12-05T11:47:43;5.70;88.40
1415;DHT22;702;49.466;11.086;2022-12-05T11:50:27;5.70;88.90
1415;DHT22;702;49.466;11.086;2022-12-05T11:53:14;5.60;86.30
1415;DHT22;702;49.466;11.086;2022-12-05T11:55:55;5.50;87.60
1415;DHT22;702;49.466;11.086;2022-12-05T11:58:53;5.30;90.00
1415;DHT22;702;49.466;11.086;2022-12-05T12:01:33;5.50;89.20
1415;DHT22;702;49.466;11.086;2022-12-05T12:04:34;5.50;89.70
1415;DHT22;702;49.466;11.086;2022-12-05T12:07:21;5.50;90.30
1415;DHT22;702;49.466;11.086;2022-12-05T12:10:01;5.70;90.30
1415;DHT22;702;49.466;11.086;2022-12-05T12:12:39;5.80;89.70
1415;DHT22;702;49.466;11.086;2022-12-05T12:15:27;5.60;90.60
1415;DHT22;702;49.466;11.086;2022-12-05T12:18:07;5.70;90.80
1415;DHT22;702;49.466;11.086;2022-12-05T12:20:50;5.80;91.10
1415;DHT22;702;49.466;11.086;2022-12-05T12:23:41;5.90;90.80
1415;DHT22;702;49.466;11.086;2022-12-05T12:26:17;5.70;90.80
1415;DHT22;702;49.466;11.086;2022-12-05T12:29:00;5.70;91.40
1415;DHT22;702;49.466;11.086;2022-12-05T12:31:55;5.60;91.90
1415;DHT22;702;49.466;11.086;2022-12-05T12:34:53;5.60;91.10
1415;DHT22;702;49.466;11.086;2022-12-05T12:37:32;5.60;91.70
1415;DHT22;702;49.466;11.086;2022-12-05T12:40:06;5.70;91.80
1415;DHT22;702;49.466;11.086;2022-12-05T12:42:47;5.60;91.60
1415;DHT22;702;49.466;11.086;2022-12-05T12:45:34;5.50;91.80
1415;DHT22;702;49.466;11.086;2022-12-05T12:48:24;5.50;92.20
1415;DHT22;702;49.466;11.086;2022-12-05T12:51:01;5.40;92.70
1415;DHT22;702;49.466;11.086;2022-12-05T12:53:58;5.30;93.00
1415;DHT22;702;49.466;11.086;2022-12-05T12:56:35;5.30;94.20
1415;DHT22;702;49.466;11.086;2022-12-05T12:59:19;5.30;93.90
1415;DHT22;702;49.466;11.086;2022-12-05T13:01:59;5.30;93.50
1415;DHT22;702;49.466;11.086;2022-12-05T13:04:38;5.20;93.50
1415;DHT22;702;49.466;11.086;2022-12-05T13:07:13;5.30;93.20
1415;DHT22;702;49.466;11.086;2022-12-05T13:09:48;5.40;92.70
1415;DHT22;702;49.466;11.086;2022-12-05T13:12:23;5.30;92.50
1415;DHT22;702;49.466;11.086;2022-12-05T13:14:56;5.40;92.50
1415;DHT22;702;49.466;11.086;2022-12-05T13:17:25;5.60;92.50
1415;DHT22;702;49.466;11.086;2022-12-05T13:19:53;5.60;92.40
1415;DHT22;702;49.466;11.086;2022-12-05T13:22:25;5.60;91.70
1415;DHT22;702;49.466;11.086;2022-12-05T13:24:54;5.70;91.70
1415;DHT22;702;49.466;11.086;2022-12-05T13:27:23;5.70;91.40
1415;DHT22;702;49.466;11.086;2022-12-05T13:29:54;5.70;91.70
1415;DHT22;702;49.466;11.086;2022-12-05T13:32:27;5.70;91.90
1415;DHT22;702;49.466;11.086;2022-12-05T13:34:59;5.80;91.70
1415;DHT22;702;49.466;11.086;2022-12-05T13:37:30;5.90;91.10
1415;DHT22;702;49.466;11.086;2022-12-05T13:40:26;5.80;90.60
1415;DHT22;702;49.466;11.086;2022-12-05T13:43:13;5.90;90.60
1415;DHT22;702;49.466;11.086;2022-12-05T13:45:57;5.90;90.70
1415;DHT22;702;49.466;11.086;2022-12-05T13:48:30;5.90;90.40
1415;DHT22;702;49.466;11.086;2022-12-05T13:51:02;5.80;90.80
1415;DHT22;702;49.466;11.086;2022-12-05T13:53:37;5.90;90.30
1415;DHT22;702;49.466;11.086;2022-12-05T13:56:24;5.90;90.60
1415;DHT22;702;49.466;11.086;2022-12-05T13:58:54;5.90;90.50
1415;DHT22;702;49.466;11.086;2022-12-05T14:01:47;5.90;90.80
1415;DHT22;702;49.466;11.086;2022-12-05T14:07:42;5.70;92.00
1415;DHT22;702;49.466;11.086;2022-12-05T14:10:13;5.80;92.40
1415;DHT22;702;49.466;11.086;2022-12-05T14:12:50;5.80;92.80
1415;DHT22;702;49.466;11.086;2022-12-05T14:15:27;5.70;92.70
1415;DHT22;702;49.466;11.086;2022-12-05T14:17:59;5.60;93.60
1415;DHT22;702;49.466;11.086;2022-12-05T14:20:41;5.40;94.40
1415;DHT22;702;49.466;11.086;2022-12-05T14:23:27;5.50;96.10
1415;DHT22;702;49.466;11.086;2022-12-05T14:26:31;5.50;95.30
1415;DHT22;702;49.466;11.086;2022-12-05T14:29:35;5.60;94.10
1415;DHT22;702;49.466;11.086;2022-12-05T14:32:18;5.60;93.50
1415;DHT22;702;49.466;11.086;2022-12-05T14:34:54;5.70;93.70
1415;DHT22;702;49.466;11.086;2022-12-05T14:37:28;5.60;93.70
1415;DHT22;702;49.466;11.086;2022-12-05T14:40:01;5.60;93.20
1415;DHT22;702;49.466;11.086;2022-12-05T14:42:35;5.70;92.80
1415;DHT22;702;49.466;11.086;2022-12-05T14:45:23;5.70;92.90
1415;DHT22;702;49.466;11.086;2022-12-05T14:47:56;5.60;93.40
1415;DHT22;702;49.466;11.086;2022-12-05T14:50:39;5.60;93.70
1415;DHT22;702;49.466;11.086;2022-12-05T14:53:36;5.60;94.00
1415;DHT22;702;49.466;11.086;2022-12-05T14:56:15;5.60;92.90
1415;DHT22;702;49.466;11.086;2022-12-05T14:58:54;5.60;93.10
1415;DHT22;702;49.466;11.086;2022-12-05T15:01:26;5.50;92.70
1415;DHT22;702;49.466;11.086;2022-12-05T15:04:12;5.50;93.10
1415;DHT22;702;49.466;11.086;2022-12-05T15:06:47;5.50;93.30
1415;DHT22;702;49.466;11.086;2022-12-05T15:09:40;5.50;93.30
1415;DHT22;702;49.466;11.086;2022-12-05T15:12:14;5.60;93.20
1415;DHT22;702;49.466;11.086;2022-12-05T15:14:47;5.60;92.90
1415;DHT22;702;49.466;11.086;2022-12-05T15:17:23;5.60;93.00
1415;DHT22;702;49.466;11.086;2022-12-05T15:19:57;5.60;92.70
1415;DHT22;702;49.466;11.086;2022-12-05T15:22:28;5.40;92.70
1415;DHT22;702;49.466;11.086;2022-12-05T15:25:13;5.40;93.70
1415;DHT22;702;49.466;11.086;2022-12-05T15:27:51;5.50;93.60
1415;DHT22;702;49.466;11.086;2022-12-05T15:30:21;5.50;93.20
1415;DHT22;702;49.466;11.086;2022-12-05T15:32:48;5.50;93.60
1415;DHT22;702;49.466;11.086;2022-12-05T15:35:16;5.40;94.00
1415;DHT22;702;49.466;11.086;2022-12-05T15:37:49;5.60;94.20
1415;DHT22;702;49.466;11.086;2022-12-05T15:40:20;5.60;92.80
1415;DHT22;702;49.466;11.086;2022-12-05T15:42:49;5.60;92.80
1415;DHT22;702;49.466;11.086;2022-12-05T15:45:22;5.50;93.00
1415;DHT22;702;49.466;11.086;2022-12-05T15:47:52;5.50;93.10
1415;DHT22;702;49.466;11.086;2022-12-05T15:50:26;5.40;93.90
1415;DHT22;702;49.466;11.086;2022-12-05T15:53:00;5.40;94.10
1415;DHT22;702;49.466;11.086;2022-12-05T15:55:34;5.40;94.20
1415;DHT22;702;49.466;11.086;2022-12-05T15:58:10;5.50;93.80
1415;DHT22;702;49.466;11.086;2022-12-05T16:00:47;5.40;94.00
1415;DHT22;702;49.466;11.086;2022-12-05T16:03:21;5.60;93.00
1415;DHT22;702;49.466;11.086;2022-12-05T16:05:54;5.60;92.50
1415;DHT22;702;49.466;11.086;2022-12-05T16:08:24;5.60;92.40
1415;DHT22;702;49.466;11.086;2022-12-05T16:10:54;5.60;92.30
1415;DHT22;702;49.466;11.086;2022-12-05T16:13:24;5.40;92.80
1415;DHT22;702;49.466;11.086;2022-12-05T16:15:54;5.40;92.90
1415;DHT22;702;49.466;11.086;2022-12-05T16:18:24;5.40;93.20
1415;DHT22;702;49.466;11.086;2022-12-05T16:20:53;5.50;93.40
1415;DHT22;702;49.466;11.086;2022-12-05T16:23:25;5.40;93.20
1415;DHT22;702;49.466;11.086;2022-12-05T16:26:03;5.40;93.60
1415;DHT22;702;49.466;11.086;2022-12-05T16:28:36;5.40;93.00
1415;DHT22;702;49.466;11.086;2022-12-05T16:31:05;5.40;92.30
1415;DHT22;702;49.466;11.086;2022-12-05T16:33:33;5.40;92.10
1415;DHT22;702;49.466;11.086;2022-12-05T16:36:07;5.30;92.90
1415;DHT22;702;49.466;11.086;2022-12-05T16:38:35;5.20;92.20
1415;DHT22;702;49.466;11.086;2022-12-05T16:41:06;5.20;92.70
1415;DHT22;702;49.466;11.086;2022-12-05T16:43:43;5.20;92.30
1415;DHT22;702;49.466;11.086;2022-12-05T16:46:41;5.20;91.70
1415;DHT22;702;49.466;11.086;2022-12-05T16:49:16;5.30;91.50
1415;DHT22;702;49.466;11.086;2022-12-05T16:51:53;5.20;91.60
1415;DHT22;702;49.466;11.086;2022-12-05T16:54:22;5.20;91.30
1415;DHT22;702;49.466;11.086;2022-12-05T16:56:50;5.20;91.50
1415;DHT22;702;49.466;11.086;2022-12-05T16:59:22;5.20;91.20
1415;DHT22;702;49.466;11.086;2022-12-05T17:01:52;5.20;91.20
1415;DHT22;702;49.466;11.086;2022-12-05T17:04:19;5.20;91.50
1415;DHT22;702;49.466;11.086;2022-12-05T17:06:46;5.20;91.50